Greenway, Arkansas
Current Conditions -  °F | °C
As of 3:35 PM on Saturday 25 Oct 2014 (Local Time) from K4M9 Reporting Station
Light Rain Light Rain  
Wind Chill: 82°   Ceiling: Unl
Heat Index: 85°   Visibility: 10mi
Dew Point: 66°   Wind: 6mph
Humidity: 58%   Direction: 220°SW
Pressure: 30"   Gusts: NA
Location:  36.34°N, 90.22°W
Report Text: K4M9 252035Z AUTO 22005KT 10SM -RA CLR 28/19 A3000 RMK AO2
Loading
Personal Weather Stations






























Interactive Weather Map
Tropical Storm Tracking
New forecast layout! Learn more

10-Day Weather Forecast

Advertisements
Track Severe Weather on mobile